Flugplatz Günzburg-Donauried

Für EDMG sind keine METAR/TAF Berichte vorhanden.
Es werden die Flugwettermeldungen vom Flugplatz Laupheim Airport in 40 km Entfernung angezeigt.

Bericht für ETHL

vom 28.01. um 15:20 UTC

Wind 15 kt aus 240°

Sichtweite 10 km oder mehr

gering bewölkt in 2000 ft

aufgebrochene Bewölkung in 3800 ft

Temperatur 4.0°C

Taupunkt -1.0°C

Luftfeuchtigkeit 70%

Luftdruck 1003 hPa

ETHL 281520Z 24015KT 9999 FEW020 BKN038 04/M01 Q1003 RERA BLU BLU TEMPO AMB

Prognose für ETHL

vom 28.01. um 00:00 UTC

Zwischen 00:00 UTC und 00:00 UTC

Wind 15 kt aus 230° in Böen 30 kt

Sichtweite 10 km oder mehr

keine signifikanten Wettererscheinungen

gering bewölkt in 1000 ft

aufgebrochene Bewölkung in 3000 ft


Zwischen 00:00 UTC und 00:00 UTC zeitweise

Wind 30 kt aus 230° in Böen 45 kt

Sichtweite 1500 m

Code: TSSN

Code: TSGS

aufgebrochene Bewölkung in 1000 ft

aufgebrochene Bewölkung in 2000 ft

TAF ETHL 281425Z 2815/2824 23015G30KT 9999 NSW FEW010 BKN030 TEMPO 2815/2821 23030G45KT 1500 TSSNGS BKN010 BKN020CB
Impressum